Gwalarn — FH3895 — position and weather

sailwx.info

Track history (hours):
 
Tides and Currents Weather Stations Pressure Air Temp Water Temp Dewpoint Dewpoint Depression Visibility Wind Speed Wind Dir Waves Ship Positions

Gwalarn

Last reported at 2017-Nov-23 13:35 UTC. Time now 2017-Nov-25 06:09 UTC.
Position N 48°23' W 004°29'.

Length 10 m.

Type: Fishing. MMSI: 227461310.

Date/timePositionNaut miles runAvg speedWind from/ knotsBaromVisibWave heightAir tempDewpointWater temp
2017-Nov-23 13:35N 48°23' W 004°29'0 0.0
2017-Nov-23 13:29N 48°23' W 004°29'1 2.4
2017-Nov-23 13:00N 48°22' W 004°29'3 6.2
2017-Nov-23 12:30N 48°19' W 004°26'2 2.9
2017-Nov-23 11:58N 48°19' W 004°24'0 0.0
2017-Nov-23 11:28N 48°19' W 004°24'0 0.0
2017-Nov-23 10:58N 48°19' W 004°24'0 0.0
2017-Nov-23 10:25N 48°19' W 004°24'0 0.5
2017-Nov-23 10:00N 48°19' W 004°23'0 0.6
2017-Nov-23 09:31N 48°19' W 004°24'0 0.7
2017-Nov-23 09:00N 48°19' W 004°23'0 0.5
2017-Nov-23 08:30N 48°19' W 004°24'0 0.2
2017-Nov-23 08:00N 48°19' W 004°24'2 4.4
2017-Nov-23 07:30N 48°19' W 004°27'3 6.6
2017-Nov-23 07:00N 48°22' W 004°29'1 1.1
2017-Nov-23 06:29N 48°23' W 004°29'  
2017-Nov-16 13:46N 48°23' W 004°29'0 0.0
2017-Nov-16 13:28N 48°23' W 004°29'2 4.9
2017-Nov-16 13:00N 48°21' W 004°28'3 6.0
2017-Nov-16 12:30N 48°19' W 004°24'1 1.8
2017-Nov-16 11:58N 48°19' W 004°23'0 0.0
2017-Nov-16 11:28N 48°19' W 004°23'0 0.0
2017-Nov-16 10:58N 48°19' W 004°23'0 0.0
2017-Nov-16 10:28N 48°19' W 004°23'0 0.1
2017-Nov-16 10:00N 48°19' W 004°23'0 0.0
2017-Nov-16 09:30N 48°19' W 004°23'0 0.1
2017-Nov-16 09:00N 48°19' W 004°23'0 0.1
2017-Nov-16 08:30N 48°19' W 004°23'0 0.2
2017-Nov-16 08:00N 48°19' W 004°23'3 6.4
2017-Nov-16 07:30N 48°20' W 004°28'3 6.8
2017-Nov-16 07:00N 48°23' W 004°29'0 0.1
2017-Nov-16 06:29N 48°23' W 004°29'0 0.0
2017-Nov-14 10:25N 48°23' W 004°29'0 0.1
2017-Nov-14 10:00N 48°23' W 004°29'0 0.0
2017-Nov-14 09:30N 48°23' W 004°29'0 0.1
2017-Nov-14 09:00N 48°23' W 004°29'4 7.2
2017-Nov-14 08:30N 48°19' W 004°30'0 0.6
2017-Nov-14 08:00N 48°19' W 004°30'1 1.3
2017-Nov-14 07:30N 48°20' W 004°30'3 6.5
2017-Nov-14 06:59N 48°23' W 004°29'0 0.0
2017-Nov-14 06:30N 48°23' W 004°29'  
Track history (hours):
 
Tides and Currents Weather Stations Pressure Air Temp Water Temp Dewpoint Dewpoint Depression Visibility Wind Speed Wind Dir Waves Ship Positions

Gwalarn

Last reported at 2017-Nov-23 13:35 UTC. Time now 2017-Nov-25 06:09 UTC.
Position N 48°23' W 004°29'.

Length 10 m.

Type: Fishing. MMSI: 227461310.

Date/timePositionNaut miles runAvg speedWind from/ knotsBaromVisibWave heightAir tempDewpointWater temp
2017-Nov-23 13:35N 48°23' W 004°29'0 0.0
2017-Nov-23 13:29N 48°23' W 004°29'1 2.4
2017-Nov-23 13:00N 48°22' W 004°29'3 6.2
2017-Nov-23 12:30N 48°19' W 004°26'2 2.9
2017-Nov-23 11:58N 48°19' W 004°24'0 0.0
2017-Nov-23 11:28N 48°19' W 004°24'0 0.0
2017-Nov-23 10:58N 48°19' W 004°24'0 0.0
2017-Nov-23 10:25N 48°19' W 004°24'0 0.5
2017-Nov-23 10:00N 48°19' W 004°23'0 0.6
2017-Nov-23 09:31N 48°19' W 004°24'0 0.7
2017-Nov-23 09:00N 48°19' W 004°23'0 0.5
2017-Nov-23 08:30N 48°19' W 004°24'0 0.2
2017-Nov-23 08:00N 48°19' W 004°24'2 4.4
2017-Nov-23 07:30N 48°19' W 004°27'3 6.6
2017-Nov-23 07:00N 48°22' W 004°29'1 1.1
2017-Nov-23 06:29N 48°23' W 004°29'  
2017-Nov-16 13:46N 48°23' W 004°29'0 0.0
2017-Nov-16 13:28N 48°23' W 004°29'2 4.9
2017-Nov-16 13:00N 48°21' W 004°28'3 6.0
2017-Nov-16 12:30N 48°19' W 004°24'1 1.8
2017-Nov-16 11:58N 48°19' W 004°23'0 0.0
2017-Nov-16 11:28N 48°19' W 004°23'0 0.0
2017-Nov-16 10:58N 48°19' W 004°23'0 0.0
2017-Nov-16 10:28N 48°19' W 004°23'0 0.1
2017-Nov-16 10:00N 48°19' W 004°23'0 0.0
2017-Nov-16 09:30N 48°19' W 004°23'0 0.1
2017-Nov-16 09:00N 48°19' W 004°23'0 0.1
2017-Nov-16 08:30N 48°19' W 004°23'0 0.2
2017-Nov-16 08:00N 48°19' W 004°23'3 6.4
2017-Nov-16 07:30N 48°20' W 004°28'3 6.8
2017-Nov-16 07:00N 48°23' W 004°29'0 0.1
2017-Nov-16 06:29N 48°23' W 004°29'0 0.0
2017-Nov-14 10:25N 48°23' W 004°29'0 0.1
2017-Nov-14 10:00N 48°23' W 004°29'0 0.0
2017-Nov-14 09:30N 48°23' W 004°29'0 0.1
2017-Nov-14 09:00N 48°23' W 004°29'4 7.2
2017-Nov-14 08:30N 48°19' W 004°30'0 0.6
2017-Nov-14 08:00N 48°19' W 004°30'1 1.3
2017-Nov-14 07:30N 48°20' W 004°30'3 6.5
2017-Nov-14 06:59N 48°23' W 004°29'0 0.0
2017-Nov-14 06:30N 48°23' W 004°29'  

Dump ship's entire track history